Time;durP1;ratioP1;P1;durP2;ratioP2;P2;SDS_P1;SDS_P2;PMS_P1;PMS_P2;Temp;Humidity;BMP_temperature;BMP_pressure;BME280_temperature;BME280_humidity;BME280_pressure;Samples;Min_cycle;Max_cycle;Signal;HPM_P1;HPM_P2
2021/10/26 00:02:04;;;;;;;23.47;18.13;;;5.70;99.90;;;;;;4995277;28;20211;-77
2021/10/26 00:04:30;;;;;;;23.80;18.47;;;5.70;99.90;;;;;;4993538;28;20307;-76
2021/10/26 00:06:55;;;;;;;26.93;18.87;;;5.60;99.90;;;;;;4995292;28;20440;-77
2021/10/26 00:09:22;;;;;;;26.10;18.80;;;5.90;99.90;;;;;;4993889;28;20180;-77
2021/10/26 00:11:48;;;;;;;26.77;18.67;;;5.60;99.90;;;;;;4993816;28;20206;-77
2021/10/26 00:14:14;;;;;;;27.13;18.87;;;5.30;99.90;;;;;;4991182;28;20181;-77
2021/10/26 00:16:40;;;;;;;28.73;19.87;;;5.40;99.90;;;;;;4978814;28;20215;-77
2021/10/26 00:19:06;;;;;;;28.87;20.47;;;5.40;99.90;;;;;;4991614;28;20222;-77
2021/10/26 00:21:31;;;;;;;28.00;20.40;;;5.40;99.90;;;;;;4994813;28;20253;-76
2021/10/26 00:23:57;;;;;;;26.97;19.83;;;5.50;99.90;;;;;;4994787;28;20213;-78
2021/10/26 00:26:23;;;;;;;29.07;20.60;;;5.50;99.90;;;;;;4994402;28;20253;-78
2021/10/26 00:28:48;;;;;;;29.10;21.50;;;5.50;99.90;;;;;;4993460;28;20179;-77
2021/10/26 00:31:14;;;;;;;28.37;21.10;;;5.60;99.90;;;;;;4994734;28;20649;-77
2021/10/26 00:33:40;;;;;;;28.30;21.60;;;5.60;99.90;;;;;;4994902;28;20179;-77
2021/10/26 00:36:06;;;;;;;29.73;21.57;;;5.70;99.90;;;;;;4994491;28;20211;-78
2021/10/26 00:38:32;;;;;;;27.93;20.70;;;5.70;99.90;;;;;;4994641;28;20207;-77
2021/10/26 00:40:58;;;;;;;28.87;20.27;;;5.80;99.90;;;;;;4996826;28;20237;-80
2021/10/26 00:43:24;;;;;;;28.73;20.77;;;5.90;99.90;;;;;;5001905;28;20194;-79
2021/10/26 00:45:50;;;;;;;29.03;21.43;;;5.80;99.90;;;;;;5002161;28;20269;-80
2021/10/26 00:48:16;;;;;;;31.07;21.23;;;5.80;99.90;;;;;;5001062;28;20232;-78
2021/10/26 00:50:42;;;;;;;29.93;21.17;;;5.80;99.90;;;;;;4999505;28;20181;-79
2021/10/26 00:53:08;;;;;;;26.83;20.33;;;5.80;99.90;;;;;;5001013;28;20186;-79
2021/10/26 00:55:34;;;;;;;29.63;21.20;;;5.90;99.90;;;;;;4996819;28;20176;-76
2021/10/26 00:58:00;;;;;;;29.50;20.73;;;5.90;99.90;;;;;;4995584;28;20188;-79
2021/10/26 01:00:26;;;;;;;28.97;21.23;;;5.90;99.90;;;;;;4993075;28;20233;-77
2021/10/26 01:02:52;;;;;;;32.97;22.43;;;5.90;99.90;;;;;;4994330;28;20198;-76
2021/10/26 01:05:18;;;;;;;32.37;21.93;;;5.90;99.90;;;;;;5001322;28;20703;-79
2021/10/26 01:07:44;;;;;;;33.43;22.97;;;5.90;99.90;;;;;;5001425;28;20582;-79
2021/10/26 01:10:10;;;;;;;37.60;22.77;;;5.90;99.90;;;;;;5000000;28;20219;-79
2021/10/26 01:12:37;;;;;;;41.53;24.03;;;5.90;99.90;;;;;;4995654;28;20194;-79
2021/10/26 01:15:06;;;;;;;43.27;24.83;;;5.90;99.90;;;;;;4991809;28;20178;-78
2021/10/26 01:17:32;;;;;;;41.30;25.00;;;5.90;99.90;;;;;;5000592;28;20195;-79
2021/10/26 01:19:58;;;;;;;47.60;25.33;;;5.80;99.90;;;;;;5001004;28;20171;-79
2021/10/26 01:22:27;;;;;;;52.13;26.80;;;5.90;99.90;;;;;;4999962;28;20208;-79
2021/10/26 01:24:54;;;;;;;57.23;26.87;;;5.80;99.90;;;;;;5000265;28;20259;-79
2021/10/26 01:27:20;;;;;;;53.07;26.27;;;5.90;99.90;;;;;;5000785;28;20198;-79
2021/10/26 01:29:46;;;;;;;52.50;27.23;;;5.90;99.90;;;;;;5000549;28;20665;-78
2021/10/26 01:32:14;;;;;;;49.07;25.60;;;5.90;99.90;;;;;;4984786;28;20197;-77
2021/10/26 01:34:40;;;;;;;52.60;28.27;;;6.00;99.90;;;;;;4989013;28;20596;-77
2021/10/26 01:37:08;;;;;;;57.70;27.63;;;5.90;99.90;;;;;;4981505;28;20258;-77
2021/10/26 01:39:34;;;;;;;55.03;27.13;;;6.00;99.90;;;;;;4991682;28;20607;-76
2021/10/26 01:42:01;;;;;;;61.73;27.70;;;6.00;99.90;;;;;;4991446;28;20231;-78
2021/10/26 01:44:27;;;;;;;55.20;26.93;;;6.00;99.90;;;;;;4992346;28;20195;-77
2021/10/26 01:46:54;;;;;;;60.00;28.10;;;6.00;99.90;;;;;;4992426;28;20176;-76
2021/10/26 01:49:21;;;;;;;52.57;28.47;;;6.00;99.90;;;;;;4992455;28;20546;-77
2021/10/26 01:51:47;;;;;;;55.73;28.13;;;6.00;99.90;;;;;;4993399;28;20201;-77
2021/10/26 01:54:13;;;;;;;54.93;29.63;;;6.10;99.90;;;;;;4992192;28;20658;-77
2021/10/26 01:56:40;;;;;;;54.63;27.17;;;6.10;99.90;;;;;;4984807;28;20225;-76
2021/10/26 01:59:05;;;;;;;69.70;29.13;;;6.10;99.90;;;;;;4993378;28;20681;-78
2021/10/26 02:01:31;;;;;;;63.83;29.73;;;6.20;99.90;;;;;;4991880;28;20220;-77
2021/10/26 02:03:57;;;;;;;64.17;29.47;;;6.10;99.90;;;;;;4993310;28;20199;-77
2021/10/26 02:06:22;;;;;;;67.67;29.00;;;6.10;99.90;;;;;;4993059;28;20183;-77
2021/10/26 02:08:48;;;;;;;82.07;29.17;;;6.10;99.90;;;;;;4993184;28;20171;-77
2021/10/26 02:11:14;;;;;;;74.97;30.60;;;6.10;99.90;;;;;;4988429;28;20206;-77
2021/10/26 02:13:40;;;;;;;60.90;29.07;;;6.10;99.90;;;;;;4986108;28;20651;-76
2021/10/26 02:16:05;;;;;;;68.47;30.23;;;6.20;99.90;;;;;;4993255;28;20183;-77
2021/10/26 02:18:32;;;;;;;71.43;30.07;;;6.40;99.90;;;;;;4993293;28;20194;-77
2021/10/26 02:20:58;;;;;;;68.67;29.10;;;6.40;99.90;;;;;;4991853;28;20203;-77
2021/10/26 02:23:24;;;;;;;68.60;28.97;;;6.20;99.90;;;;;;4993173;28;20198;-77
2021/10/26 02:25:50;;;;;;;78.33;32.37;;;6.30;99.90;;;;;;4981986;28;20191;-77
2021/10/26 02:28:16;;;;;;;69.17;29.63;;;6.30;99.90;;;;;;4993304;28;20176;-76
2021/10/26 02:30:42;;;;;;;64.13;29.70;;;6.20;99.90;;;;;;4993081;28;20188;-77
2021/10/26 02:33:10;;;;;;;67.73;30.23;;;6.30;99.90;;;;;;4993122;28;20184;-77
2021/10/26 02:35:35;;;;;;;72.73;30.63;;;6.30;99.90;;;;;;4991826;28;20187;-76
2021/10/26 02:38:01;;;;;;;54.37;28.63;;;6.30;99.90;;;;;;4992992;28;20187;-77
2021/10/26 02:40:27;;;;;;;67.63;30.37;;;6.30;99.90;;;;;;4992997;28;20214;-77
2021/10/26 02:42:53;;;;;;;63.40;29.70;;;6.30;99.90;;;;;;4992726;28;20253;-77
2021/10/26 02:45:19;;;;;;;61.30;29.00;;;6.30;99.90;;;;;;4993114;28;20191;-77
2021/10/26 02:47:45;;;;;;;59.33;28.87;;;6.30;99.90;;;;;;4991694;28;20183;-77
2021/10/26 02:50:12;;;;;;;71.33;30.27;;;6.30;99.90;;;;;;4993891;28;20176;-77
2021/10/26 02:52:38;;;;;;;60.33;29.23;;;6.30;99.90;;;;;;4996626;28;20613;-77
2021/10/26 02:55:05;;;;;;;62.43;30.30;;;6.30;99.90;;;;;;4996588;28;20196;-77
2021/10/26 02:57:30;;;;;;;59.80;27.83;;;6.30;99.90;;;;;;4988061;28;20202;-77
2021/10/26 02:59:56;;;;;;;55.30;29.00;;;6.40;99.90;;;;;;4995129;28;20658;-77
2021/10/26 03:02:22;;;;;;;64.40;28.53;;;6.30;99.90;;;;;;5023547;22;20271;-79
2021/10/26 03:04:48;;;;;;;49.27;28.43;;;6.30;99.90;;;;;;5019106;28;20612;-78
2021/10/26 03:07:13;;;;;;;58.33;30.17;;;6.30;99.90;;;;;;5019717;28;20207;-78
2021/10/26 03:09:40;;;;;;;59.27;30.00;;;6.40;99.90;;;;;;5014707;28;20182;-78
2021/10/26 03:12:06;;;;;;;53.50;29.67;;;6.30;99.90;;;;;;5011277;28;20218;-78
2021/10/26 03:14:31;;;;;;;50.70;28.77;;;6.40;99.90;;;;;;5021882;28;20187;-78
2021/10/26 03:16:57;;;;;;;57.23;31.07;;;6.40;99.90;;;;;;5022234;28;20269;-78
2021/10/26 03:19:23;;;;;;;58.77;30.97;;;6.40;99.90;;;;;;5019669;28;20206;-79
2021/10/26 03:21:48;;;;;;;62.37;31.60;;;6.40;99.90;;;;;;5020016;28;20198;-79
2021/10/26 03:24:14;;;;;;;66.47;31.00;;;6.70;99.90;;;;;;5019758;28;20195;-78
2021/10/26 03:26:40;;;;;;;64.37;31.13;;;6.40;99.90;;;;;;5019364;28;20183;-80
2021/10/26 03:29:05;;;;;;;59.13;29.33;;;6.20;99.90;;;;;;5020179;28;20568;-79
2021/10/26 03:31:31;;;;;;;58.60;30.83;;;6.40;99.90;;;;;;5018384;28;20198;-79
2021/10/26 03:33:57;;;;;;;61.30;31.17;;;6.50;99.90;;;;;;5020894;28;20604;-78
2021/10/26 03:36:22;;;;;;;55.37;29.17;;;6.50;99.90;;;;;;5022633;28;20179;-76
2021/10/26 03:38:50;;;;;;;54.87;28.80;;;6.50;99.90;;;;;;5010105;28;20271;-78
2021/10/26 03:41:16;;;;;;;63.43;29.90;;;6.50;99.90;;;;;;5019979;28;20179;-79
2021/10/26 03:43:41;;;;;;;59.83;30.37;;;6.10;99.90;;;;;;5020734;28;20268;-79
2021/10/26 03:46:07;;;;;;;59.73;31.10;;;6.40;99.90;;;;;;5022460;28;20178;-78
2021/10/26 03:48:33;;;;;;;56.80;30.97;;;6.50;99.90;;;;;;5022341;28;20174;-79
2021/10/26 03:50:58;;;;;;;50.73;29.03;;;6.50;99.90;;;;;;5021452;28;20182;-78
2021/10/26 03:53:24;;;;;;;59.77;30.67;;;6.40;99.90;;;;;;5022007;28;20221;-79
2021/10/26 03:55:49;;;;;;;52.67;28.77;;;6.50;99.90;;;;;;5016582;28;20230;-79
2021/10/26 03:58:15;;;;;;;53.87;30.17;;;6.50;99.90;;;;;;5017726;28;20573;-79
2021/10/26 04:00:41;;;;;;;48.27;28.70;;;6.50;99.90;;;;;;5014861;28;20270;-79
2021/10/26 04:03:07;;;;;;;50.57;28.20;;;6.50;99.90;;;;;;5000489;28;20223;-80
2021/10/26 04:11:02;;;;;;;46.73;28.67;;;6.40;99.90;;;;;;5020643;28;20191;-77
2021/10/26 04:13:28;;;;;;;50.63;29.53;;;6.50;99.90;;;;;;5021599;28;20179;-78
2021/10/26 04:15:57;;;;;;;49.57;29.33;;;6.60;99.90;;;;;;5019159;28;20320;-80
2021/10/26 04:18:23;;;;;;;57.67;34.57;;;6.60;99.90;;;;;;5019772;28;20233;-80
2021/10/26 04:20:50;;;;;;;56.70;31.33;;;6.60;99.90;;;;;;5019648;28;20183;-78
2021/10/26 04:23:16;;;;;;;49.27;29.47;;;6.60;99.90;;;;;;5017448;28;20207;-80
2021/10/26 04:25:41;;;;;;;48.43;29.70;;;6.60;99.90;;;;;;5008798;28;20635;-80
2021/10/26 04:28:07;;;;;;;48.90;28.93;;;6.60;99.90;;;;;;5007164;28;20185;-79
2021/10/26 04:30:34;;;;;;;47.27;28.23;;;6.50;99.90;;;;;;5011329;28;20180;-78
2021/10/26 04:33:02;;;;;;;44.90;28.87;;;6.60;99.90;;;;;;5007204;28;20202;-78
2021/10/26 04:35:28;;;;;;;46.40;27.83;;;6.70;99.90;;;;;;4999369;28;20270;-78
2021/10/26 04:37:54;;;;;;;45.67;27.93;;;6.60;99.90;;;;;;5002471;28;20186;-78
2021/10/26 04:40:20;;;;;;;48.97;29.97;;;6.60;99.90;;;;;;4996413;28;20187;-78
2021/10/26 04:42:46;;;;;;;46.53;29.20;;;6.60;99.90;;;;;;4994782;28;20196;-80
2021/10/26 04:45:11;;;;;;;43.03;27.73;;;6.60;99.90;;;;;;4997226;28;20530;-78
2021/10/26 04:47:38;;;;;;;45.70;29.37;;;6.60;99.90;;;;;;5000993;28;20236;-78
2021/10/26 04:50:04;;;;;;;42.90;27.33;;;6.70;99.90;;;;;;5002865;28;20172;-79
2021/10/26 04:52:30;;;;;;;44.47;28.40;;;6.70;99.90;;;;;;4999521;28;20251;-79
2021/10/26 04:54:55;;;;;;;40.50;28.00;;;6.70;99.90;;;;;;5016971;28;20183;-78
2021/10/26 04:57:21;;;;;;;48.33;29.37;;;6.70;99.90;;;;;;5009342;28;20280;-77
2021/10/26 04:59:47;;;;;;;43.53;28.50;;;6.70;99.90;;;;;;5018827;28;20202;-79
2021/10/26 05:02:12;;;;;;;44.27;28.93;;;6.90;99.90;;;;;;5019264;28;20226;-78
2021/10/26 05:04:38;;;;;;;42.73;27.57;;;6.90;99.90;;;;;;5002703;28;20200;-79
2021/10/26 05:07:04;;;;;;;42.70;28.13;;;6.70;99.90;;;;;;4998974;28;20177;-79
2021/10/26 05:09:30;;;;;;;41.23;28.27;;;6.70;99.90;;;;;;5001161;28;20639;-78
2021/10/26 05:11:55;;;;;;;42.00;28.67;;;6.70;99.90;;;;;;4997932;28;20204;-78
2021/10/26 05:14:21;;;;;;;37.77;26.60;;;6.70;99.90;;;;;;5001009;28;20184;-78
2021/10/26 05:16:47;;;;;;;38.90;26.90;;;6.70;99.90;;;;;;4998580;28;20188;-80
2021/10/26 05:19:14;;;;;;;36.93;25.70;;;6.70;99.90;;;;;;4999511;28;20195;-79
2021/10/26 05:21:40;;;;;;;43.53;27.77;;;6.70;99.90;;;;;;4995242;28;20188;-80
2021/10/26 05:24:05;;;;;;;39.30;27.20;;;6.80;99.90;;;;;;4995722;28;20262;-79
2021/10/26 05:26:35;;;;;;;39.57;27.10;;;6.80;99.90;;;;;;4998820;28;20175;-79
2021/10/26 05:29:00;;;;;;;37.00;27.03;;;6.70;99.90;;;;;;4998579;28;20184;-80
2021/10/26 05:31:27;;;;;;;38.63;26.23;;;6.80;99.90;;;;;;4998072;28;20613;-78
2021/10/26 05:33:53;;;;;;;40.93;27.10;;;6.80;99.90;;;;;;4995684;28;20186;-78
2021/10/26 05:36:18;;;;;;;37.60;27.03;;;6.80;99.90;;;;;;4998518;28;20859;-79
2021/10/26 05:38:44;;;;;;;36.40;24.93;;;6.70;99.90;;;;;;4996754;28;20226;-79
2021/10/26 05:41:11;;;;;;;43.00;27.80;;;6.70;99.90;;;;;;4995480;28;20211;-79
2021/10/26 05:43:40;;;;;;;36.20;26.37;;;6.80;99.90;;;;;;4998490;28;20193;-79
2021/10/26 05:46:06;;;;;;;39.33;27.60;;;6.80;99.90;;;;;;5000227;28;20180;-78
2021/10/26 05:48:46;;;;;;;36.07;26.10;;;6.90;99.90;;;;;;4998550;28;20173;-78
2021/10/26 05:51:12;;;;;;;35.77;26.97;;;6.80;99.90;;;;;;4999106;28;20175;-79
2021/10/26 05:53:38;;;;;;;45.13;27.97;;;6.80;99.90;;;;;;4997518;28;20274;-78
2021/10/26 05:56:04;;;;;;;42.23;28.10;;;6.80;99.90;;;;;;4995741;28;20219;-79
2021/10/26 05:58:30;;;;;;;43.57;29.60;;;6.70;99.90;;;;;;4995546;28;20662;-78
2021/10/26 06:00:55;;;;;;;43.87;27.83;;;6.90;99.90;;;;;;4999137;28;20203;-79
2021/10/26 06:03:21;;;;;;;39.47;26.83;;;6.80;99.90;;;;;;5001252;28;20218;-79
2021/10/26 06:05:47;;;;;;;41.03;27.50;;;6.70;99.90;;;;;;4996840;28;20187;-79
2021/10/26 06:08:12;;;;;;;48.07;28.43;;;6.70;99.90;;;;;;4994693;28;20661;-80
2021/10/26 06:10:43;;;;;;;41.73;29.00;;;6.70;99.90;;;;;;4999597;28;20179;-80
2021/10/26 06:13:11;;;;;;;46.13;29.37;;;6.80;99.90;;;;;;4997052;28;20210;-79
2021/10/26 06:15:39;;;;;;;49.53;30.83;;;6.80;99.90;;;;;;4999862;28;20180;-80
2021/10/26 06:18:05;;;;;;;55.30;32.30;;;6.80;99.90;;;;;;4996815;28;20183;-79
2021/10/26 06:20:31;;;;;;;50.50;30.23;;;6.90;99.90;;;;;;5011838;28;20190;-79
2021/10/26 06:22:57;;;;;;;57.33;32.27;;;6.80;99.90;;;;;;5013987;28;20207;-78
2021/10/26 06:25:22;;;;;;;58.13;33.27;;;6.80;99.90;;;;;;4999558;28;20241;-78
2021/10/26 06:27:48;;;;;;;63.10;35.03;;;6.80;99.90;;;;;;5018115;28;20218;-79
2021/10/26 06:30:14;;;;;;;66.40;36.23;;;6.80;99.90;;;;;;5017007;28;20233;-78
2021/10/26 06:32:44;;;;;;;63.97;35.17;;;6.80;99.90;;;;;;5004273;28;20210;-78
2021/10/26 06:35:11;;;;;;;68.73;35.73;;;6.80;99.90;;;;;;5001963;28;20183;-78
2021/10/26 06:37:42;;;;;;;59.40;32.93;;;6.80;99.90;;;;;;5000608;28;20288;-80
2021/10/26 06:40:08;;;;;;;69.50;36.80;;;6.80;99.90;;;;;;4999811;28;20186;-79
2021/10/26 06:42:34;;;;;;;59.53;32.73;;;6.80;99.90;;;;;;5000736;28;20279;-80
2021/10/26 06:45:01;;;;;;;60.70;34.10;;;6.80;99.90;;;;;;5002020;28;20243;-78
2021/10/26 06:47:27;;;;;;;59.57;33.40;;;6.80;99.90;;;;;;5002538;28;20219;-80
2021/10/26 06:49:52;;;;;;;63.20;33.90;;;6.80;99.90;;;;;;5003853;28;20172;-77
2021/10/26 06:52:18;;;;;;;64.40;34.03;;;6.80;99.90;;;;;;5001261;28;20782;-79
2021/10/26 06:54:44;;;;;;;62.33;33.57;;;6.80;99.90;;;;;;5002091;28;20201;-78
2021/10/26 06:57:10;;;;;;;68.97;34.37;;;6.80;99.90;;;;;;4999886;28;20267;-79
2021/10/26 06:59:36;;;;;;;64.70;34.63;;;6.80;99.90;;;;;;5001125;28;20259;-77
2021/10/26 07:02:03;;;;;;;66.20;35.57;;;6.90;99.90;;;;;;5001950;28;20219;-80
2021/10/26 07:04:29;;;;;;;61.97;32.97;;;6.90;99.90;;;;;;5002275;28;20198;-79
2021/10/26 07:06:55;;;;;;;64.70;34.87;;;6.90;99.90;;;;;;4996068;28;20176;-79
2021/10/26 07:09:20;;;;;;;71.60;36.80;;;6.90;99.90;;;;;;4996592;28;20194;-79
2021/10/26 07:11:46;;;;;;;68.47;35.30;;;6.90;99.90;;;;;;5012920;28;20203;-78
2021/10/26 07:14:12;;;;;;;69.73;35.93;;;7.00;99.90;;;;;;4993513;28;20186;-79
2021/10/26 07:16:38;;;;;;;71.67;36.23;;;7.00;99.90;;;;;;4999707;28;20175;-78
2021/10/26 07:19:03;;;;;;;75.47;37.30;;;7.00;99.90;;;;;;5018255;28;20179;-78
2021/10/26 07:21:29;;;;;;;71.17;37.27;;;7.00;99.90;;;;;;5020853;28;20662;-79
2021/10/26 07:23:55;;;;;;;75.17;36.53;;;7.00;99.90;;;;;;5021384;28;20206;-78
2021/10/26 07:26:22;;;;;;;71.97;37.07;;;7.00;99.90;;;;;;5021243;28;20175;-79
2021/10/26 07:28:48;;;;;;;71.40;37.60;;;7.10;99.90;;;;;;5003911;28;20177;-79
2021/10/26 07:31:15;;;;;;;72.47;38.27;;;7.10;99.90;;;;;;4998866;28;20215;-79
2021/10/26 07:33:41;;;;;;;68.47;37.73;;;7.20;99.90;;;;;;5000120;28;20192;-79
2021/10/26 07:36:09;;;;;;;71.40;38.30;;;7.20;99.90;;;;;;5001559;28;20180;-79
2021/10/26 07:38:41;;;;;;;67.87;37.83;;;7.20;99.90;;;;;;5004289;28;20178;-79
2021/10/26 07:41:07;;;;;;;64.07;36.50;;;7.30;99.90;;;;;;4999911;28;20576;-80
2021/10/26 07:43:37;;;;;;;71.13;39.37;;;7.30;99.90;;;;;;5000794;28;20341;-78
2021/10/26 07:46:04;;;;;;;64.10;37.27;;;7.40;99.90;;;;;;4998054;28;20207;-79
2021/10/26 07:48:30;;;;;;;71.40;38.17;;;7.40;99.90;;;;;;5002402;28;20524;-79
2021/10/26 07:51:00;;;;;;;65.80;36.23;;;7.50;99.90;;;;;;5002555;28;20176;-80
2021/10/26 07:53:27;;;;;;;61.03;34.90;;;7.60;99.90;;;;;;5001761;28;20666;-79
2021/10/26 07:55:53;;;;;;;60.87;36.10;;;7.50;99.90;;;;;;5002065;28;20179;-78
2021/10/26 07:58:22;;;;;;;63.73;36.03;;;7.60;99.90;;;;;;4998879;28;20212;-78
2021/10/26 08:00:48;;;;;;;57.73;33.90;;;7.60;99.90;;;;;;5001022;28;20191;-79
2021/10/26 08:03:13;;;;;;;67.97;38.67;;;7.70;99.90;;;;;;4998417;28;20207;-79
2021/10/26 08:05:39;;;;;;;61.97;36.57;;;7.70;99.90;;;;;;5000031;28;20176;-77
2021/10/26 08:08:05;;;;;;;62.47;35.37;;;7.80;99.90;;;;;;5002112;28;20183;-80
2021/10/26 08:10:31;;;;;;;66.13;37.73;;;7.80;99.90;;;;;;5001123;28;20176;-79
2021/10/26 08:12:56;;;;;;;62.60;36.27;;;7.90;99.90;;;;;;5002391;28;20262;-79
2021/10/26 08:15:22;;;;;;;64.10;37.03;;;7.90;99.90;;;;;;5000491;28;20212;-79
2021/10/26 08:17:48;;;;;;;65.53;37.60;;;8.00;99.90;;;;;;5002520;28;20514;-79
2021/10/26 08:20:15;;;;;;;59.23;35.53;;;8.00;99.90;;;;;;5000906;28;20170;-80
2021/10/26 08:22:41;;;;;;;59.43;34.80;;;8.10;99.90;;;;;;5003308;28;20192;-80
2021/10/26 08:25:20;;;;;;;62.90;37.30;;;8.10;99.90;;;;;;5020221;28;20179;-79
2021/10/26 08:27:47;;;;;;;56.17;36.50;;;8.20;99.90;;;;;;4996500;28;20858;-79
2021/10/26 08:32:50;;;;;;;64.33;36.83;;;8.30;99.90;;;;;;5003205;28;20246;-78
2021/10/26 08:35:30;;;;;;;56.03;35.43;;;8.20;99.90;;;;;;5002837;28;20167;-79
2021/10/26 08:37:59;;;;;;;61.90;36.00;;;8.40;99.90;;;;;;5002858;28;20174;-79
2021/10/26 08:40:26;;;;;;;55.10;34.67;;;8.40;99.90;;;;;;5001972;28;20673;-79
2021/10/26 08:42:54;;;;;;;58.67;36.37;;;8.40;99.90;;;;;;5000626;28;20209;-79
2021/10/26 08:45:21;;;;;;;62.63;37.30;;;8.40;99.90;;;;;;4999990;28;20238;-79
2021/10/26 08:47:48;;;;;;;61.57;37.70;;;8.50;99.90;;;;;;4998920;28;20251;-79
2021/10/26 08:50:14;;;;;;;61.50;36.03;;;8.60;99.90;;;;;;4999892;28;20176;-79
2021/10/26 08:52:42;;;;;;;58.50;34.50;;;8.70;99.90;;;;;;5001874;28;20208;-78
2021/10/26 08:55:09;;;;;;;50.97;32.37;;;8.70;99.90;;;;;;5000706;28;20185;-81
2021/10/26 08:57:35;;;;;;;51.63;33.03;;;8.80;99.90;;;;;;5000276;28;20219;-79
2021/10/26 09:00:08;;;;;;;41.23;28.97;;;8.80;99.90;;;;;;4999544;28;20859;-79
2021/10/26 09:02:39;;;;;;;36.43;26.00;;;8.90;99.90;;;;;;4998151;28;20447;-79
2021/10/26 09:05:10;;;;;;;37.37;27.17;;;8.90;99.90;;;;;;4997787;28;20682;-79
2021/10/26 09:07:36;;;;;;;35.50;26.10;;;9.00;99.90;;;;;;5000529;28;20245;-80
2021/10/26 09:10:15;;;;;;;29.57;22.97;;;9.10;99.90;;;;;;5000609;28;20718;-79
2021/10/26 09:17:55;;;;;;;31.03;22.97;;;9.50;99.90;;;;;;5000626;28;20205;-79
2021/10/26 09:20:23;;;;;;;28.00;22.07;;;9.50;99.90;;;;;;5001199;28;20186;-79
2021/10/26 09:22:55;;;;;;;27.57;21.77;;;9.50;99.90;;;;;;5001868;28;20196;-77
2021/10/26 09:25:40;;;;;;;25.87;21.17;;;9.60;99.90;;;;;;5000133;28;20177;-80
2021/10/26 09:28:11;;;;;;;28.20;21.27;;;9.60;99.90;;;;;;4999545;28;20549;-79
2021/10/26 09:30:37;;;;;;;25.43;20.63;;;9.80;99.90;;;;;;4999277;28;20175;-78
2021/10/26 09:33:07;;;;;;;25.47;20.43;;;9.90;99.90;;;;;;5004122;28;21607;-79
2021/10/26 09:35:33;;;;;;;24.63;19.87;;;10.00;99.90;;;;;;5000686;28;20174;-80
2021/10/26 09:37:58;;;;;;;21.43;19.13;;;10.10;99.90;;;;;;5003322;28;20169;-78
2021/10/26 09:40:41;;;;;;;28.50;20.50;;;10.20;99.90;;;;;;5017650;28;20209;-79
2021/10/26 09:43:08;;;;;;;23.90;19.33;;;10.20;99.90;;;;;;5015264;28;20205;-79
2021/10/26 09:45:34;;;;;;;25.50;19.73;;;10.20;99.90;;;;;;5004840;28;20226;-79
2021/10/26 09:48:19;;;;;;;19.77;17.67;;;10.30;99.90;;;;;;5012181;28;20267;-78
2021/10/26 09:50:45;;;;;;;22.17;18.00;;;10.30;99.90;;;;;;5020394;28;20598;-79
2021/10/26 09:53:16;;;;;;;25.20;19.63;;;10.30;99.90;;;;;;4997086;28;20213;-78
2021/10/26 09:55:48;;;;;;;24.53;18.73;;;10.30;99.90;;;;;;4987554;28;20220;-79
2021/10/26 09:58:21;;;;;;;24.47;19.40;;;10.20;99.90;;;;;;4984456;28;20185;-81
2021/10/26 10:00:50;;;;;;;22.30;17.77;;;10.20;99.90;;;;;;4991995;28;20220;-79
2021/10/26 10:03:19;;;;;;;21.13;18.13;;;10.30;99.90;;;;;;4992899;28;20596;-79
2021/10/26 10:06:09;;;;;;;22.53;17.67;;;10.30;99.90;;;;;;4992779;28;20191;-79
2021/10/26 10:08:36;;;;;;;20.93;18.53;;;10.50;99.90;;;;;;4986855;28;20169;-79
2021/10/26 10:11:05;;;;;;;26.50;18.07;;;10.50;99.90;;;;;;4989578;28;20183;-80
2021/10/26 10:13:31;;;;;;;21.30;16.60;;;10.60;99.90;;;;;;4996963;28;20182;-79
2021/10/26 10:15:57;;;;;;;17.93;16.03;;;10.70;99.90;;;;;;4994223;28;20178;-79
2021/10/26 10:18:24;;;;;;;18.70;15.70;;;10.70;99.90;;;;;;5018503;28;20176;-80
2021/10/26 10:20:53;;;;;;;19.53;15.77;;;10.70;99.90;;;;;;5017875;28;20264;-80
2021/10/26 10:23:20;;;;;;;19.70;16.43;;;10.90;99.90;;;;;;5019786;28;20197;-78
2021/10/26 10:25:49;;;;;;;20.00;16.23;;;11.00;99.90;;;;;;5019659;28;20268;-79
2021/10/26 10:28:17;;;;;;;16.77;14.93;;;11.10;99.90;;;;;;5005916;28;20219;-78
2021/10/26 10:30:43;;;;;;;17.70;15.63;;;11.20;99.90;;;;;;5018151;28;20231;-79
2021/10/26 10:33:10;;;;;;;18.93;14.87;;;11.30;99.90;;;;;;5014689;28;20198;-78
2021/10/26 10:35:37;;;;;;;18.57;14.97;;;11.30;99.90;;;;;;5018918;28;20593;-80
2021/10/26 10:38:06;;;;;;;19.33;14.20;;;11.50;99.90;;;;;;5020201;28;20176;-79
2021/10/26 10:40:32;;;;;;;16.03;14.40;;;11.60;99.90;;;;;;5019599;28;20226;-79
2021/10/26 10:42:59;;;;;;;16.00;13.20;;;11.60;99.90;;;;;;5010392;28;20258;-79
2021/10/26 10:45:31;;;;;;;16.13;13.40;;;11.70;99.90;;;;;;4999985;28;20167;-78
2021/10/26 10:47:58;;;;;;;16.33;13.23;;;11.80;99.90;;;;;;4995447;28;20179;-79
2021/10/26 10:50:25;;;;;;;15.20;13.03;;;11.90;99.90;;;;;;5000225;28;20233;-80
2021/10/26 10:53:12;;;;;;;16.50;13.00;;;12.00;99.90;;;;;;4998481;28;20194;-80
2021/10/26 10:55:40;;;;;;;15.27;13.57;;;12.00;99.90;;;;;;4999563;28;20174;-80
2021/10/26 10:58:27;;;;;;;15.67;13.80;;;12.00;99.90;;;;;;4996628;28;20555;-77
2021/10/26 11:01:20;;;;;;;14.53;13.00;;;12.10;99.90;;;;;;4992308;28;20546;-76
2021/10/26 11:03:47;;;;;;;14.40;12.83;;;12.20;99.90;;;;;;5007513;28;20192;-76
2021/10/26 11:06:44;;;;;;;14.20;12.90;;;12.30;99.90;;;;;;5002161;28;20178;-79
2021/10/26 11:09:28;;;;;;;16.20;13.27;;;12.20;99.90;;;;;;4979646;28;20277;-76
2021/10/26 11:12:15;;;;;;;14.23;12.53;;;12.30;99.90;;;;;;5014208;28;20191;-77
2021/10/26 11:14:47;;;;;;;14.20;12.80;;;12.30;99.90;;;;;;5014778;28;20193;-76
2021/10/26 11:17:41;;;;;;;13.07;10.80;;;12.40;99.90;;;;;;5015735;28;20185;-76
2021/10/26 11:20:25;;;;;;;10.97;9.90;;;12.60;99.90;;;;;;5015819;28;20237;-76
2021/10/26 11:22:53;;;;;;;10.47;9.47;;;12.70;99.90;;;;;;5015668;28;20255;-77
2021/10/26 11:25:22;;;;;;;9.43;8.30;;;12.80;99.90;;;;;;5014559;28;20260;-76
2021/10/26 11:27:48;;;;;;;9.10;7.67;;;12.80;99.90;;;;;;5015703;28;20178;-76
2021/10/26 11:30:32;;;;;;;8.43;7.63;;;12.80;99.90;;;;;;5014314;28;20661;-77
2021/10/26 11:33:13;;;;;;;14.83;8.77;;;12.90;99.90;;;;;;4983165;28;20219;-78
2021/10/26 11:35:55;;;;;;;10.73;7.33;;;12.90;99.90;;;;;;4987884;28;20182;-77
2021/10/26 11:38:23;;;;;;;9.07;6.90;;;12.90;99.90;;;;;;4992598;28;20165;-77
2021/10/26 11:41:07;;;;;;;11.23;8.73;;;13.10;99.90;;;;;;4986735;28;20180;-79
2021/10/26 11:43:53;;;;;;;9.80;8.00;;;13.10;99.90;;;;;;4993666;28;20292;-79
2021/10/26 11:46:24;;;;;;;10.63;7.70;;;13.20;99.90;;;;;;4988416;28;20258;-79
2021/10/26 11:49:16;;;;;;;9.37;8.33;;;13.20;99.90;;;;;;4988726;28;20168;-78
2021/10/26 11:51:44;;;;;;;8.60;7.80;;;13.20;99.90;;;;;;5002767;28;20608;-79
2021/10/26 11:54:18;;;;;;;13.17;8.70;;;13.20;99.90;;;;;;4990527;28;20189;-79
2021/10/26 11:56:49;;;;;;;10.03;8.13;;;13.20;99.90;;;;;;5006563;28;20234;-78
2021/10/26 11:59:34;;;;;;;8.47;7.43;;;13.30;99.90;;;;;;4991553;28;20172;-79
2021/10/26 12:02:02;;;;;;;8.63;7.20;;;13.40;99.90;;;;;;4988596;28;20211;-79
2021/10/26 12:04:31;;;;;;;9.23;7.07;;;13.40;99.90;;;;;;5004131;28;20199;-78
2021/10/26 12:07:01;;;;;;;8.40;7.60;;;13.50;99.90;;;;;;4993443;28;20262;-79
2021/10/26 12:09:39;;;;;;;9.33;7.67;;;13.50;99.90;;;;;;4994529;28;20175;-78
2021/10/26 12:12:10;;;;;;;7.23;6.53;;;13.60;99.90;;;;;;4997952;28;20249;-79
2021/10/26 12:14:39;;;;;;;7.10;6.37;;;13.50;99.90;;;;;;4988935;28;20716;-77
2021/10/26 12:17:17;;;;;;;8.23;6.63;;;13.60;99.90;;;;;;4991503;28;20250;-79
2021/10/26 12:20:05;;;;;;;10.70;6.43;;;13.60;99.90;;;;;;4992764;28;20651;-79
2021/10/26 12:22:31;;;;;;;7.57;5.97;;;13.50;99.90;;;;;;4990901;28;20218;-79
2021/10/26 12:27:46;;;;;;;7.87;7.17;;;13.40;99.90;;;;;;4989697;28;20174;-79
2021/10/26 12:30:14;;;;;;;12.07;7.50;;;13.40;99.90;;;;;;4994843;28;20677;-78
2021/10/26 12:32:48;;;;;;;7.23;6.57;;;13.40;99.90;;;;;;4994716;28;20209;-78
2021/10/26 12:35:14;;;;;;;11.33;8.27;;;13.40;99.90;;;;;;4995000;28;20177;-78
2021/10/26 12:37:40;;;;;;;10.03;8.33;;;13.40;99.90;;;;;;4999500;28;20183;-79
2021/10/26 12:40:19;;;;;;;11.10;8.30;;;13.40;99.90;;;;;;4994910;28;20205;-78
2021/10/26 12:43:01;;;;;;;13.53;8.43;;;13.40;99.90;;;;;;4996993;28;20195;-79
2021/10/26 12:45:38;;;;;;;10.13;9.10;;;13.40;99.90;;;;;;4994247;28;20182;-77
2021/10/26 12:48:05;;;;;;;9.23;8.33;;;13.50;99.90;;;;;;4991999;28;20550;-78
2021/10/26 12:50:52;;;;;;;8.73;7.83;;;13.50;99.90;;;;;;5003763;28;20167;-79
2021/10/26 12:53:33;;;;;;;11.87;8.43;;;13.50;99.90;;;;;;4994605;28;20538;-78
2021/10/26 12:56:00;;;;;;;9.83;7.40;;;13.50;99.90;;;;;;4991991;28;20717;-79
2021/10/26 12:58:35;;;;;;;9.57;8.17;;;13.50;99.90;;;;;;5002465;28;20288;-79